sensor_id;sensor_type;location;lat;lon;timestamp;pressure;altitude;pressure_sealevel;temperature;humidity
36284;BME280;56085;48.910;9.478;2023-01-13T00:01:41;97840.72;;;9.19;65.56
36284;BME280;56085;48.910;9.478;2023-01-13T00:04:07;97835.63;;;9.21;65.36
36284;BME280;56085;48.910;9.478;2023-01-13T00:06:33;97832.88;;;9.21;65.08
36284;BME280;56085;48.910;9.478;2023-01-13T00:08:58;97834.03;;;9.20;65.73
36284;BME280;56085;48.910;9.478;2023-01-13T00:11:23;97817.13;;;9.22;65.33
36284;BME280;56085;48.910;9.478;2023-01-13T00:13:50;97819.44;;;9.20;65.66
36284;BME280;56085;48.910;9.478;2023-01-13T00:16:15;97831.28;;;9.20;65.42
36284;BME280;56085;48.910;9.478;2023-01-13T00:18:41;97822.63;;;9.22;65.46
36284;BME280;56085;48.910;9.478;2023-01-13T00:21:08;97830.13;;;9.21;65.77
36284;BME280;56085;48.910;9.478;2023-01-13T00:23:34;97827.00;;;9.23;65.81
36284;BME280;56085;48.910;9.478;2023-01-13T00:26:01;97814.78;;;9.24;65.28
36284;BME280;56085;48.910;9.478;2023-01-13T00:28:26;97814.06;;;9.27;65.28
36284;BME280;56085;48.910;9.478;2023-01-13T00:30:52;97806.97;;;9.26;65.46
36284;BME280;56085;48.910;9.478;2023-01-13T00:33:17;97812.84;;;9.24;65.57
36284;BME280;56085;48.910;9.478;2023-01-13T00:35:42;97814.78;;;9.24;65.33
36284;BME280;56085;48.910;9.478;2023-01-13T00:38:07;97815.22;;;9.26;65.29
36284;BME280;56085;48.910;9.478;2023-01-13T00:40:32;97821.91;;;9.25;65.61
36284;BME280;56085;48.910;9.478;2023-01-13T00:42:58;97815.16;;;9.22;65.70
36284;BME280;56085;48.910;9.478;2023-01-13T00:45:42;97818.00;;;9.26;65.57
36284;BME280;56085;48.910;9.478;2023-01-13T00:48:07;97806.97;;;9.26;65.61
36284;BME280;56085;48.910;9.478;2023-01-13T00:50:32;97805.78;;;9.27;65.85
36284;BME280;56085;48.910;9.478;2023-01-13T00:52:58;97803.03;;;9.27;65.89
36284;BME280;56085;48.910;9.478;2023-01-13T00:55:24;97812.53;;;9.30;65.68
36284;BME280;56085;48.910;9.478;2023-01-13T00:57:49;97796.44;;;9.32;65.48
36284;BME280;56085;48.910;9.478;2023-01-13T01:00:14;97796.44;;;9.32;65.68
36284;BME280;56085;48.910;9.478;2023-01-13T01:02:40;97791.69;;;9.32;65.70
36284;BME280;56085;48.910;9.478;2023-01-13T01:05:05;97796.06;;;9.33;65.82
36284;BME280;56085;48.910;9.478;2023-01-13T01:07:32;97793.72;;;9.35;65.48
36284;BME280;56085;48.910;9.478;2023-01-13T01:09:57;97795.69;;;9.35;65.92
36284;BME280;56085;48.910;9.478;2023-01-13T01:12:22;97783.09;;;9.37;65.61
36284;BME280;56085;48.910;9.478;2023-01-13T01:14:47;97783.09;;;9.37;65.67
36284;BME280;56085;48.910;9.478;2023-01-13T01:17:13;97783.09;;;9.37;65.86
36284;BME280;56085;48.910;9.478;2023-01-13T01:19:38;97776.88;;;9.40;65.65
36284;BME280;56085;48.910;9.478;2023-01-13T01:22:03;97783.97;;;9.41;65.25
36284;BME280;56085;48.910;9.478;2023-01-13T01:24:28;97774.19;;;9.44;65.32
36284;BME280;56085;48.910;9.478;2023-01-13T01:26:53;97781.31;;;9.45;65.69
36284;BME280;56085;48.910;9.478;2023-01-13T01:29:18;97778.19;;;9.47;65.68
36284;BME280;56085;48.910;9.478;2023-01-13T01:31:44;97764.75;;;9.45;65.41
36284;BME280;56085;48.910;9.478;2023-01-13T01:34:09;97762.41;;;9.47;65.44
36284;BME280;56085;48.910;9.478;2023-01-13T01:36:34;97770.31;;;9.49;65.52
36284;BME280;56085;48.910;9.478;2023-01-13T01:39:00;97778.69;;;9.52;65.38
36284;BME280;56085;48.910;9.478;2023-01-13T01:41:27;97770.75;;;9.51;65.34
36284;BME280;56085;48.910;9.478;2023-01-13T01:48:52;97788.59;;;9.57;65.13
36284;BME280;56085;48.910;9.478;2023-01-13T01:51:19;97768.91;;;9.58;65.42
36284;BME280;56085;48.910;9.478;2023-01-13T01:53:44;97762.63;;;9.58;65.29
36284;BME280;56085;48.910;9.478;2023-01-13T01:56:11;97764.13;;;9.55;65.16
36284;BME280;56085;48.910;9.478;2023-01-13T01:58:38;97744.81;;;9.55;65.36
36284;BME280;56085;48.910;9.478;2023-01-13T02:01:07;97748.72;;;9.54;65.37
36284;BME280;56085;48.910;9.478;2023-01-13T02:03:34;97747.56;;;9.55;65.33
36284;BME280;56085;48.910;9.478;2023-01-13T02:06:01;97751.06;;;9.52;65.36
36284;BME280;56085;48.910;9.478;2023-01-13T02:08:26;97747.94;;;9.54;65.11
36284;BME280;56085;48.910;9.478;2023-01-13T02:10:52;97753.47;;;9.54;65.26
36284;BME280;56085;48.910;9.478;2023-01-13T02:13:18;97745.59;;;9.56;65.28
36284;BME280;56085;48.910;9.478;2023-01-13T02:15:57;97740.09;;;9.56;65.57
36284;BME280;56085;48.910;9.478;2023-01-13T02:18:34;97742.84;;;9.56;65.39
36284;BME280;56085;48.910;9.478;2023-01-13T02:21:09;97734.94;;;9.54;65.27
36284;BME280;56085;48.910;9.478;2023-01-13T02:26:40;97727.88;;;9.57;65.39
36284;BME280;56085;48.910;9.478;2023-01-13T02:29:28;97725.91;;;9.57;65.15
36284;BME280;56085;48.910;9.478;2023-01-13T02:32:18;97720.03;;;9.59;65.33
36284;BME280;56085;48.910;9.478;2023-01-13T02:34:48;97727.53;;;9.58;65.31
36284;BME280;56085;48.910;9.478;2023-01-13T02:37:18;97714.09;;;9.57;65.02
36284;BME280;56085;48.910;9.478;2023-01-13T02:40:00;97714.47;;;9.55;65.30
36284;BME280;56085;48.910;9.478;2023-01-13T02:42:31;97713.66;;;9.55;65.31
36284;BME280;56085;48.910;9.478;2023-01-13T02:45:16;97716.78;;;9.53;65.27
36284;BME280;56085;48.910;9.478;2023-01-13T02:47:43;97709.69;;;9.52;65.09
36284;BME280;56085;48.910;9.478;2023-01-13T02:50:12;97703.34;;;9.52;65.39
36284;BME280;56085;48.910;9.478;2023-01-13T02:52:45;97704.53;;;9.51;65.23
36284;BME280;56085;48.910;9.478;2023-01-13T02:55:14;97692.63;;;9.47;65.43
36284;BME280;56085;48.910;9.478;2023-01-13T02:57:40;97701.69;;;9.47;65.52
36284;BME280;56085;48.910;9.478;2023-01-13T03:00:06;97683.91;;;9.44;65.52
36284;BME280;56085;48.910;9.478;2023-01-13T03:02:33;97686.25;;;9.42;65.49
36284;BME280;56085;48.910;9.478;2023-01-13T03:04:59;97702.03;;;9.42;65.59
36284;BME280;56085;48.910;9.478;2023-01-13T03:12:38;97690.97;;;9.42;65.47
36284;BME280;56085;48.910;9.478;2023-01-13T03:15:16;97684.22;;;9.39;65.83
36284;BME280;56085;48.910;9.478;2023-01-13T03:18:34;97687.34;;;9.38;65.51
36284;BME280;56085;48.910;9.478;2023-01-13T03:20:33;97687.00;;;9.39;65.87
36284;BME280;56085;48.910;9.478;2023-01-13T03:23:12;97696.78;;;9.37;65.78
36284;BME280;56085;48.910;9.478;2023-01-13T03:25:41;97693.28;;;9.40;65.47
36284;BME280;56085;48.910;9.478;2023-01-13T03:28:15;97688.22;;;9.42;65.56
36284;BME280;56085;48.910;9.478;2023-01-13T03:30:44;97685.47;;;9.42;65.60
36284;BME280;56085;48.910;9.478;2023-01-13T03:33:23;97683.88;;;9.41;65.88
36284;BME280;56085;48.910;9.478;2023-01-13T03:35:51;97672.03;;;9.40;65.85
36284;BME280;56085;48.910;9.478;2023-01-13T03:38:20;97680.31;;;9.40;65.91
36284;BME280;56085;48.910;9.478;2023-01-13T03:40:52;97680.69;;;9.39;65.75
36284;BME280;56085;48.910;9.478;2023-01-13T03:43:20;97672.03;;;9.40;65.52
36284;BME280;56085;48.910;9.478;2023-01-13T03:46:07;97659.41;;;9.39;65.81
36284;BME280;56085;48.910;9.478;2023-01-13T03:48:35;97675.16;;;9.39;65.68
36284;BME280;56085;48.910;9.478;2023-01-13T03:51:04;97666.44;;;9.37;65.85
36284;BME280;56085;48.910;9.478;2023-01-13T03:53:31;97666.44;;;9.37;65.89
36284;BME280;56085;48.910;9.478;2023-01-13T03:56:10;97666.03;;;9.35;65.90
36284;BME280;56085;48.910;9.478;2023-01-13T03:58:38;97660.88;;;9.33;66.11
36284;BME280;56085;48.910;9.478;2023-01-13T04:01:15;97669.91;;;9.30;66.04
36284;BME280;56085;48.910;9.478;2023-01-13T04:08:43;97652.78;;;9.21;66.26
36284;BME280;56085;48.910;9.478;2023-01-13T04:11:14;97662.94;;;9.17;66.23
36284;BME280;56085;48.910;9.478;2023-01-13T04:13:42;97651.13;;;9.16;66.08
36284;BME280;56085;48.910;9.478;2023-01-13T04:16:10;97658.66;;;9.19;65.96
36284;BME280;56085;48.910;9.478;2023-01-13T04:18:36;97655.13;;;9.19;66.20
36284;BME280;56085;48.910;9.478;2023-01-13T04:21:01;97657.13;;;9.22;66.38
36284;BME280;56085;48.910;9.478;2023-01-13T04:23:27;97653.50;;;9.18;66.42
36284;BME280;56085;48.910;9.478;2023-01-13T04:25:53;97647.94;;;9.14;66.17
36284;BME280;56085;48.910;9.478;2023-01-13T04:28:18;97654.53;;;9.09;66.12
36284;BME280;56085;48.910;9.478;2023-01-13T04:30:43;97641.94;;;9.08;66.53
36284;BME280;56085;48.910;9.478;2023-01-13T04:33:09;97649.75;;;9.06;66.33
36284;BME280;56085;48.910;9.478;2023-01-13T04:35:35;97655.72;;;9.08;66.52
36284;BME280;56085;48.910;9.478;2023-01-13T04:38:08;97660.13;;;9.13;66.39
36284;BME280;56085;48.910;9.478;2023-01-13T04:40:33;97651.91;;;9.17;66.48
36284;BME280;56085;48.910;9.478;2023-01-13T04:42:58;97653.16;;;9.19;66.61
36284;BME280;56085;48.910;9.478;2023-01-13T04:45:24;97649.22;;;9.20;66.94
36284;BME280;56085;48.910;9.478;2023-01-13T04:47:49;97644.88;;;9.19;66.55
36284;BME280;56085;48.910;9.478;2023-01-13T04:50:14;97643.28;;;9.18;66.78
36284;BME280;56085;48.910;9.478;2023-01-13T04:52:43;97645.31;;;9.21;67.03
36284;BME280;56085;48.910;9.478;2023-01-13T04:55:09;97638.69;;;9.26;66.71
36284;BME280;56085;48.910;9.478;2023-01-13T04:57:34;97636.31;;;9.24;66.79
36284;BME280;56085;48.910;9.478;2023-01-13T05:00:01;97638.69;;;9.26;66.95
36284;BME280;56085;48.910;9.478;2023-01-13T05:02:26;97644.63;;;9.28;66.76
36284;BME280;56085;48.910;9.478;2023-01-13T05:04:51;97641.94;;;9.32;66.99
36284;BME280;56085;48.910;9.478;2023-01-13T05:07:17;97643.22;;;9.38;66.63
36284;BME280;56085;48.910;9.478;2023-01-13T05:09:42;97653.88;;;9.39;66.95
36284;BME280;56085;48.910;9.478;2023-01-13T05:12:08;97636.97;;;9.41;66.88
36284;BME280;56085;48.910;9.478;2023-01-13T05:14:52;97634.63;;;9.43;66.95
36284;BME280;56085;48.910;9.478;2023-01-13T05:17:35;97654.00;;;9.47;66.72
36284;BME280;56085;48.910;9.478;2023-01-13T05:20:01;97645.75;;;9.50;66.67
36284;BME280;56085;48.910;9.478;2023-01-13T05:22:26;97650.91;;;9.52;66.92
36284;BME280;56085;48.910;9.478;2023-01-13T05:25:10;97655.28;;;9.53;66.81
36284;BME280;56085;48.910;9.478;2023-01-13T05:27:48;97647.00;;;9.53;66.83
36284;BME280;56085;48.910;9.478;2023-01-13T05:30:14;97648.59;;;9.54;66.68
36284;BME280;56085;48.910;9.478;2023-01-13T05:32:39;97658.09;;;9.56;66.71
36284;BME280;56085;48.910;9.478;2023-01-13T05:35:04;97669.16;;;9.56;66.93
36284;BME280;56085;48.910;9.478;2023-01-13T05:37:30;97659.69;;;9.57;66.73
36284;BME280;56085;48.910;9.478;2023-01-13T05:39:55;97656.56;;;9.59;66.64
36284;BME280;56085;48.910;9.478;2023-01-13T05:42:39;97661.28;;;9.58;66.77
36284;BME280;56085;48.910;9.478;2023-01-13T05:45:23;97648.28;;;9.59;66.55
36284;BME280;56085;48.910;9.478;2023-01-13T05:47:48;97654.59;;;9.59;66.87
36284;BME280;56085;48.910;9.478;2023-01-13T05:50:13;97649.09;;;9.59;66.68
36284;BME280;56085;48.910;9.478;2023-01-13T05:52:39;97643.56;;;9.59;66.66
36284;BME280;56085;48.910;9.478;2023-01-13T05:55:04;97642.38;;;9.60;66.79
36284;BME280;56085;48.910;9.478;2023-01-13T05:57:29;97630.56;;;9.60;66.34
36284;BME280;56085;48.910;9.478;2023-01-13T05:59:55;97651.47;;;9.61;66.56
36284;BME280;56085;48.910;9.478;2023-01-13T06:02:20;97639.25;;;9.62;66.55
36284;BME280;56085;48.910;9.478;2023-01-13T06:04:45;97645.56;;;9.63;66.69
36284;BME280;56085;48.910;9.478;2023-01-13T06:07:10;97636.84;;;9.60;66.38
36284;BME280;56085;48.910;9.478;2023-01-13T06:09:36;97637.66;;;9.61;66.79
36284;BME280;56085;48.910;9.478;2023-01-13T06:12:01;97641.22;;;9.61;66.55
36284;BME280;56085;48.910;9.478;2023-01-13T06:14:26;97640.06;;;9.63;66.64
36284;BME280;56085;48.910;9.478;2023-01-13T06:17:05;97646.38;;;9.63;66.60
36284;BME280;56085;48.910;9.478;2023-01-13T06:19:30;97638.09;;;9.63;66.47
36284;BME280;56085;48.910;9.478;2023-01-13T06:21:56;97651.09;;;9.63;66.44
36284;BME280;56085;48.910;9.478;2023-01-13T06:24:21;97641.63;;;9.64;66.58
36284;BME280;56085;48.910;9.478;2023-01-13T06:26:46;97642.81;;;9.63;66.72
36284;BME280;56085;48.910;9.478;2023-01-13T06:29:12;97649.50;;;9.61;66.73
36284;BME280;56085;48.910;9.478;2023-01-13T06:31:38;97642.81;;;9.63;66.47
36284;BME280;56085;48.910;9.478;2023-01-13T06:34:05;97642.00;;;9.62;66.50
36284;BME280;56085;48.910;9.478;2023-01-13T06:36:34;97638.88;;;9.64;66.20
36284;BME280;56085;48.910;9.478;2023-01-13T06:39:00;97627.84;;;9.64;66.46
36284;BME280;56085;48.910;9.478;2023-01-13T06:41:26;97647.16;;;9.64;66.44
36284;BME280;56085;48.910;9.478;2023-01-13T06:44:11;97644.84;;;9.66;66.58
36284;BME280;56085;48.910;9.478;2023-01-13T06:46:36;97648.81;;;9.68;66.49
36284;BME280;56085;48.910;9.478;2023-01-13T06:49:02;97656.28;;;9.68;66.54
36284;BME280;56085;48.910;9.478;2023-01-13T06:51:27;97636.19;;;9.67;66.50
36284;BME280;56085;48.910;9.478;2023-01-13T06:53:52;97643.31;;;9.68;66.40
36284;BME280;56085;48.910;9.478;2023-01-13T06:56:17;97645.69;;;9.70;66.66
36284;BME280;56085;48.910;9.478;2023-01-13T06:58:42;97652.00;;;9.70;66.66
36284;BME280;56085;48.910;9.478;2023-01-13T07:01:08;97646.06;;;9.68;66.36
36284;BME280;56085;48.910;9.478;2023-01-13T07:03:33;97646.44;;;9.67;66.65
36284;BME280;56085;48.910;9.478;2023-01-13T07:05:58;97631.44;;;9.68;66.54
36284;BME280;56085;48.910;9.478;2023-01-13T07:08:24;97640.09;;;9.66;66.41
36284;BME280;56085;48.910;9.478;2023-01-13T07:10:49;97637.34;;;9.66;66.53
36284;BME280;56085;48.910;9.478;2023-01-13T07:13:15;97648.75;;;9.65;66.36
36284;BME280;56085;48.910;9.478;2023-01-13T07:16:00;97631.41;;;9.64;66.49
36284;BME280;56085;48.910;9.478;2023-01-13T07:18:26;97630.59;;;9.64;66.32
36284;BME280;56085;48.910;9.478;2023-01-13T07:20:53;97636.94;;;9.64;66.18
36284;BME280;56085;48.910;9.478;2023-01-13T07:23:18;97632.94;;;9.61;66.34
36284;BME280;56085;48.910;9.478;2023-01-13T07:25:43;97634.91;;;9.61;66.48
36284;BME280;56085;48.910;9.478;2023-01-13T07:28:08;97639.25;;;9.62;66.29
36284;BME280;56085;48.910;9.478;2023-01-13T07:30:33;97643.22;;;9.65;66.47
36284;BME280;56085;48.910;9.478;2023-01-13T07:32:58;97637.72;;;9.65;66.27
36284;BME280;56085;48.910;9.478;2023-01-13T07:35:23;97646.75;;;9.61;66.61
36284;BME280;56085;48.910;9.478;2023-01-13T07:37:49;97638.53;;;9.65;66.49
36284;BME280;56085;48.910;9.478;2023-01-13T07:40:14;97639.25;;;9.62;66.62
36284;BME280;56085;48.910;9.478;2023-01-13T07:42:39;97639.25;;;9.62;66.78
36284;BME280;56085;48.910;9.478;2023-01-13T07:45:23;97640.47;;;9.65;66.76
36284;BME280;56085;48.910;9.478;2023-01-13T07:47:49;97648.34;;;9.63;66.82
36284;BME280;56085;48.910;9.478;2023-01-13T07:50:15;97638.88;;;9.64;66.58
36284;BME280;56085;48.910;9.478;2023-01-13T07:52:40;97647.16;;;9.64;66.58
36284;BME280;56085;48.910;9.478;2023-01-13T07:55:05;97637.31;;;9.63;66.64
36284;BME280;56085;48.910;9.478;2023-01-13T07:57:30;97641.22;;;9.61;66.69
36284;BME280;56085;48.910;9.478;2023-01-13T07:59:56;97645.56;;;9.63;67.05
36284;BME280;56085;48.910;9.478;2023-01-13T08:02:21;97639.69;;;9.64;66.85
36284;BME280;56085;48.910;9.478;2023-01-13T08:04:46;97651.50;;;9.65;67.10
36284;BME280;56085;48.910;9.478;2023-01-13T08:07:11;97645.22;;;9.64;66.61
36284;BME280;56085;48.910;9.478;2023-01-13T08:09:36;97640.09;;;9.66;66.73
36284;BME280;56085;48.910;9.478;2023-01-13T08:12:02;97655.50;;;9.67;66.87
36284;BME280;56085;48.910;9.478;2023-01-13T08:14:46;97641.69;;;9.67;66.88
36284;BME280;56085;48.910;9.478;2023-01-13T08:17:11;97650.03;;;9.71;66.58
36284;BME280;56085;48.910;9.478;2023-01-13T08:19:36;97657.53;;;9.70;67.13
36284;BME280;56085;48.910;9.478;2023-01-13T08:22:01;97655.16;;;9.72;67.04
36284;BME280;56085;48.910;9.478;2023-01-13T08:24:26;97668.06;;;9.65;66.95
36284;BME280;56085;48.910;9.478;2023-01-13T08:26:52;97672.81;;;9.64;67.22
36284;BME280;56085;48.910;9.478;2023-01-13T08:29:17;97672.81;;;9.64;67.17
36284;BME280;56085;48.910;9.478;2023-01-13T08:31:42;97671.28;;;9.67;67.36
36284;BME280;56085;48.910;9.478;2023-01-13T08:34:07;97681.09;;;9.64;67.62
36284;BME280;56085;48.910;9.478;2023-01-13T08:36:32;97680.75;;;9.69;67.85
36284;BME280;56085;48.910;9.478;2023-01-13T08:38:58;97674.50;;;9.72;67.83
36284;BME280;56085;48.910;9.478;2023-01-13T08:41:23;97690.13;;;9.61;67.79
36284;BME280;56085;48.910;9.478;2023-01-13T08:44:06;97701.44;;;9.56;68.25
36284;BME280;56085;48.910;9.478;2023-01-13T08:46:33;97706.72;;;9.41;68.28
36284;BME280;56085;48.910;9.478;2023-01-13T08:48:58;97714.31;;;9.25;68.53
36284;BME280;56085;48.910;9.478;2023-01-13T08:51:23;97705.56;;;9.19;68.91
36284;BME280;56085;48.910;9.478;2023-01-13T08:53:48;97706.16;;;9.09;69.29
36284;BME280;56085;48.910;9.478;2023-01-13T08:56:13;97714.38;;;9.05;69.19
36284;BME280;56085;48.910;9.478;2023-01-13T08:58:39;97723.38;;;9.02;69.57
36284;BME280;56085;48.910;9.478;2023-01-13T09:01:05;97738.19;;;8.94;69.74
36284;BME280;56085;48.910;9.478;2023-01-13T09:03:30;97736.94;;;8.91;69.90
36284;BME280;56085;48.910;9.478;2023-01-13T09:05:56;97757.69;;;8.85;70.41
36284;BME280;56085;48.910;9.478;2023-01-13T09:08:21;97774.97;;;8.82;70.78
36284;BME280;56085;48.910;9.478;2023-01-13T09:10:46;97793.88;;;8.64;71.18
36284;BME280;56085;48.910;9.478;2023-01-13T09:13:11;97806.88;;;8.32;71.27
36284;BME280;56085;48.910;9.478;2023-01-13T09:15:38;97824.50;;;8.11;71.55
36284;BME280;56085;48.910;9.478;2023-01-13T09:18:03;97831.81;;;7.88;71.81
36284;BME280;56085;48.910;9.478;2023-01-13T09:20:28;97824.94;;;7.65;72.11
36284;BME280;56085;48.910;9.478;2023-01-13T09:22:53;97836.38;;;7.51;72.27
36284;BME280;56085;48.910;9.478;2023-01-13T09:25:18;97824.63;;;7.39;72.38
36284;BME280;56085;48.910;9.478;2023-01-13T09:27:44;97839.44;;;7.34;72.62
36284;BME280;56085;48.910;9.478;2023-01-13T09:30:09;97833.50;;;7.32;73.25
36284;BME280;56085;48.910;9.478;2023-01-13T09:32:34;97834.56;;;7.27;72.66
36284;BME280;56085;48.910;9.478;2023-01-13T09:35:01;97838.16;;;7.31;73.30
36284;BME280;56085;48.910;9.478;2023-01-13T09:37:28;97835.53;;;7.35;73.70
36284;BME280;56085;48.910;9.478;2023-01-13T09:39:53;97854.00;;;7.34;73.53
36284;BME280;56085;48.910;9.478;2023-01-13T09:42:39;97835.25;;;7.40;73.93
36284;BME280;56085;48.910;9.478;2023-01-13T09:45:43;97843.63;;;7.44;73.86
36284;BME280;56085;48.910;9.478;2023-01-13T09:48:12;97844.88;;;7.46;74.45
36284;BME280;56085;48.910;9.478;2023-01-13T09:53:29;97845.94;;;7.58;75.09
36284;BME280;56085;48.910;9.478;2023-01-13T09:55:56;97854.31;;;7.61;75.10
36284;BME280;56085;48.910;9.478;2023-01-13T09:58:21;97855.47;;;7.60;75.47
36284;BME280;56085;48.910;9.478;2023-01-13T10:03:20;97850.94;;;7.68;75.58
36284;BME280;56085;48.910;9.478;2023-01-13T10:11:00;97838.53;;;7.74;75.63
36284;BME280;56085;48.910;9.478;2023-01-13T10:13:44;97841.66;;;7.73;76.10
36284;BME280;56085;48.910;9.478;2023-01-13T10:23:45;97843.78;;;7.79;76.14
36284;BME280;56085;48.910;9.478;2023-01-13T10:26:17;97841.84;;;7.80;76.50
36284;BME280;56085;48.910;9.478;2023-01-13T10:28:52;97849.97;;;7.76;76.37
36284;BME280;56085;48.910;9.478;2023-01-13T10:31:18;97840.59;;;7.77;76.50
36284;BME280;56085;48.910;9.478;2023-01-13T10:33:43;97845.53;;;7.72;76.11
36284;BME280;56085;48.910;9.478;2023-01-13T10:36:12;97845.19;;;7.73;76.63
36284;BME280;56085;48.910;9.478;2023-01-13T10:38:39;97841.72;;;7.76;76.21
36284;BME280;56085;48.910;9.478;2023-01-13T10:41:15;97843.69;;;7.76;76.48
36284;BME280;56085;48.910;9.478;2023-01-13T10:43:42;97850.88;;;7.80;76.55
36284;BME280;56085;48.910;9.478;2023-01-13T10:46:13;97844.47;;;7.76;76.78
36284;BME280;56085;48.910;9.478;2023-01-13T10:48:57;97851.22;;;7.79;76.70
36284;BME280;56085;48.910;9.478;2023-01-13T10:51:24;97843.88;;;7.83;77.13
36284;BME280;56085;48.910;9.478;2023-01-13T10:53:54;97853.28;;;7.82;76.86
36284;BME280;56085;48.910;9.478;2023-01-13T10:56:20;97864.13;;;7.91;76.82
36284;BME280;56085;48.910;9.478;2023-01-13T10:58:45;97862.31;;;7.82;76.55
36284;BME280;56085;48.910;9.478;2023-01-13T11:01:17;97849.47;;;7.86;76.97
36284;BME280;56085;48.910;9.478;2023-01-13T11:03:43;97855.78;;;7.87;77.40
36284;BME280;56085;48.910;9.478;2023-01-13T11:06:18;97858.38;;;7.96;77.25
36284;BME280;56085;48.910;9.478;2023-01-13T11:08:45;97858.09;;;8.01;76.95
36284;BME280;56085;48.910;9.478;2023-01-13T11:13:55;97855.44;;;7.89;77.31
36284;BME280;56085;48.910;9.478;2023-01-13T11:16:44;97856.22;;;7.89;77.24
36284;BME280;56085;48.910;9.478;2023-01-13T11:19:12;97866.41;;;7.73;77.33
36284;BME280;56085;48.910;9.478;2023-01-13T11:24:16;97871.69;;;7.49;76.85
36284;BME280;56085;48.910;9.478;2023-01-13T11:26:50;97868.81;;;7.46;76.71
36284;BME280;56085;48.910;9.478;2023-01-13T11:29:19;97881.84;;;7.33;76.59
36284;BME280;56085;48.910;9.478;2023-01-13T11:31:49;97874.75;;;7.32;76.53
36284;BME280;56085;48.910;9.478;2023-01-13T11:36:48;97886.31;;;7.25;76.88
36284;BME280;56085;48.910;9.478;2023-01-13T11:42:00;97887.50;;;7.24;76.59
36284;BME280;56085;48.910;9.478;2023-01-13T11:44:50;97885.88;;;7.23;76.77
36284;BME280;56085;48.910;9.478;2023-01-13T11:47:20;97888.16;;;7.21;76.87
36284;BME280;56085;48.910;9.478;2023-01-13T11:49:47;97893.31;;;7.23;76.56
36284;BME280;56085;48.910;9.478;2023-01-13T11:57:36;97891.38;;;7.23;76.87
36284;BME280;56085;48.910;9.478;2023-01-13T12:03:14;97898.50;;;7.24;77.00
36284;BME280;56085;48.910;9.478;2023-01-13T12:05:43;97890.25;;;7.24;76.74
36284;BME280;56085;48.910;9.478;2023-01-13T12:14:35;97887.41;;;7.93;76.91
36284;BME280;56085;48.910;9.478;2023-01-13T12:17:05;97871.41;;;9.37;77.04
36284;BME280;56085;48.910;9.478;2023-01-13T12:19:35;97848.91;;;10.74;77.32
36284;BME280;56085;48.910;9.478;2023-01-13T12:22:08;97938.50;;;15.36;77.22
36284;BME280;56085;48.910;9.478;2023-01-13T12:24:39;97881.19;;;15.39;76.16
36284;BME280;56085;48.910;9.478;2023-01-13T12:29:34;97850.38;;;11.97;73.42
36284;BME280;56085;48.910;9.478;2023-01-13T12:32:00;97851.34;;;10.53;72.50
36284;BME280;56085;48.910;9.478;2023-01-13T12:34:29;97862.91;;;9.66;72.29
36284;BME280;56085;48.910;9.478;2023-01-13T12:39:25;97886.34;;;8.62;71.78
36284;BME280;56085;48.910;9.478;2023-01-13T12:41:56;97883.03;;;8.40;71.85
36284;BME280;56085;48.910;9.478;2023-01-13T12:45:03;97894.69;;;8.17;72.13
36284;BME280;56085;48.910;9.478;2023-01-13T12:47:32;97895.91;;;8.04;71.82
36284;BME280;56085;48.910;9.478;2023-01-13T12:52:42;97907.09;;;7.95;72.59
36284;BME280;56085;48.910;9.478;2023-01-13T12:55:10;97900.34;;;7.93;72.75
36284;BME280;56085;48.910;9.478;2023-01-13T12:57:36;97919.38;;;7.98;72.57
36284;BME280;56085;48.910;9.478;2023-01-13T13:04:55;97919.16;;;7.91;72.86
36284;BME280;56085;48.910;9.478;2023-01-13T13:07:24;97915.63;;;7.90;72.75
36284;BME280;56085;48.910;9.478;2023-01-13T13:15:24;97956.91;;;8.82;72.89
36284;BME280;56085;48.910;9.478;2023-01-13T13:20:53;97919.06;;;9.54;71.77
36284;BME280;56085;48.910;9.478;2023-01-13T13:23:25;97915.69;;;9.25;71.51
36284;BME280;56085;48.910;9.478;2023-01-13T13:25:57;97919.00;;;8.95;71.85
36284;BME280;56085;48.910;9.478;2023-01-13T13:28:24;97965.16;;;14.29;72.38
36284;BME280;56085;48.910;9.478;2023-01-13T13:30:52;97950.16;;;17.62;72.15
36284;BME280;56085;48.910;9.478;2023-01-13T13:33:38;97930.06;;;20.12;71.09
36284;BME280;56085;48.910;9.478;2023-01-13T13:36:14;97970.09;;;20.69;69.21
36284;BME280;56085;48.910;9.478;2023-01-13T13:41:33;97911.41;;;13.78;64.88
36284;BME280;56085;48.910;9.478;2023-01-13T13:44:23;97988.81;;;13.76;64.12
36284;BME280;56085;48.910;9.478;2023-01-13T13:47:08;97970.81;;;12.92;63.90
36284;BME280;56085;48.910;9.478;2023-01-13T13:49:35;97938.44;;;11.80;63.01
36284;BME280;56085;48.910;9.478;2023-01-13T13:54:51;97930.22;;;11.23;62.67
36284;BME280;56085;48.910;9.478;2023-01-13T13:57:19;97919.72;;;10.09;62.24
36284;BME280;56085;48.910;9.478;2023-01-13T13:59:46;97955.63;;;9.31;61.94
36284;BME280;56085;48.910;9.478;2023-01-13T14:02:26;97953.41;;;9.01;62.30
36284;BME280;56085;48.910;9.478;2023-01-13T14:05:04;97958.34;;;8.76;61.83
36284;BME280;56085;48.910;9.478;2023-01-13T14:07:30;97967.47;;;8.48;61.61
36284;BME280;56085;48.910;9.478;2023-01-13T14:09:55;97973.06;;;8.36;61.86
36284;BME280;56085;48.910;9.478;2023-01-13T14:12:25;97969.56;;;8.23;61.97
36284;BME280;56085;48.910;9.478;2023-01-13T14:14:51;97969.84;;;8.18;61.86
36284;BME280;56085;48.910;9.478;2023-01-13T14:17:17;97985.00;;;8.12;61.95
36284;BME280;56085;48.910;9.478;2023-01-13T14:19:46;97980.84;;;8.02;62.61
36284;BME280;56085;48.910;9.478;2023-01-13T14:22:14;98005.06;;;7.96;62.30
36284;BME280;56085;48.910;9.478;2023-01-13T14:24:46;98011.97;;;7.90;62.50
36284;BME280;56085;48.910;9.478;2023-01-13T14:27:14;98016.56;;;7.86;62.56
36284;BME280;56085;48.910;9.478;2023-01-13T14:29:40;98018.78;;;7.80;62.64
36284;BME280;56085;48.910;9.478;2023-01-13T14:32:05;98022.09;;;7.74;62.42
36284;BME280;56085;48.910;9.478;2023-01-13T14:34:31;98028.56;;;7.65;63.08
36284;BME280;56085;48.910;9.478;2023-01-13T14:36:57;98037.97;;;7.64;63.17
36284;BME280;56085;48.910;9.478;2023-01-13T14:39:23;98069.44;;;10.58;63.41
36284;BME280;56085;48.910;9.478;2023-01-13T14:41:49;98061.16;;;12.49;63.88
36284;BME280;56085;48.910;9.478;2023-01-13T14:44:31;98027.19;;;14.58;63.44
36284;BME280;56085;48.910;9.478;2023-01-13T14:47:03;97990.72;;;13.61;62.88